createdAt,value
2016-07-19T00:00:01.754Z,1015.94
2016-07-19T00:00:32.483Z,1015.95
2016-07-19T00:01:02.479Z,1015.94
2016-07-19T00:01:32.512Z,1015.93
2016-07-19T00:02:01.103Z,1015.93
2016-07-19T00:02:31.813Z,1015.91
2016-07-19T00:03:02.544Z,1015.91
2016-07-19T00:03:32.562Z,1015.91
2016-07-19T00:04:02.569Z,1015.9
2016-07-19T00:04:31.872Z,1015.91
2016-07-19T00:05:01.889Z,1015.91
2016-07-19T00:05:32.619Z,1015.9
2016-07-19T00:06:01.929Z,1015.86
2016-07-19T00:06:32.635Z,1015.91
2016-07-19T00:07:02.654Z,1015.91
2016-07-19T00:07:32.666Z,1015.9
2016-07-19T00:08:02.682Z,1015.92
2016-07-19T00:08:31.989Z,1015.89
2016-07-19T00:09:02.715Z,1015.9
2016-07-19T00:09:32.034Z,1015.87
2016-07-19T00:10:02.751Z,1015.9
2016-07-19T00:10:32.763Z,1015.85
2016-07-19T00:11:01.351Z,1015.85
2016-07-19T00:11:32.793Z,1015.85
2016-07-19T00:12:02.819Z,1015.87
2016-07-19T00:12:32.120Z,1015.86
2016-07-19T00:13:02.829Z,1015.83
2016-07-19T00:13:32.845Z,1015.85
2016-07-19T00:14:02.867Z,1015.87
2016-07-19T00:14:32.172Z,1015.87
2016-07-19T00:15:02.893Z,1015.86
2016-07-19T00:15:32.921Z,1015.91
2016-07-19T00:16:02.225Z,1015.89
2016-07-19T00:16:32.921Z,1015.93
2016-07-19T00:17:02.952Z,1015.87
2016-07-19T00:17:32.962Z,1015.88
2016-07-19T00:18:02.263Z,1015.88
2016-07-19T00:18:32.270Z,1015.91
2016-07-19T00:19:03.000Z,1015.9
2016-07-19T00:19:33.035Z,1015.89
2016-07-19T00:20:02.319Z,1015.9
2016-07-19T00:20:33.049Z,1015.89
2016-07-19T00:21:03.064Z,1015.88
2016-07-19T00:21:33.075Z,1015.87
2016-07-19T00:22:02.378Z,1015.88
2016-07-19T00:22:32.398Z,1015.86
2016-07-19T00:23:03.119Z,1015.88
2016-07-19T00:23:33.126Z,1015.87
2016-07-19T00:24:03.151Z,1015.88
2016-07-19T00:24:33.160Z,1015.83
2016-07-19T00:25:03.178Z,1015.84
2016-07-19T00:25:33.190Z,1015.83
2016-07-19T00:26:03.207Z,1015.82
2016-07-19T00:26:33.219Z,1015.84
2016-07-19T00:27:03.230Z,1015.83
2016-07-19T00:27:32.537Z,1015.8
2016-07-19T00:28:03.261Z,1015.83
2016-07-19T00:28:33.283Z,1015.82
2016-07-19T00:29:02.579Z,1015.78
2016-07-19T00:29:33.310Z,1015.81
2016-07-19T00:30:03.322Z,1015.77
2016-07-19T00:30:33.330Z,1015.75
2016-07-19T00:31:03.338Z,1015.79
2016-07-19T00:31:32.650Z,1015.81
2016-07-19T00:32:03.390Z,1015.76
2016-07-19T00:32:33.386Z,1015.78
2016-07-19T00:33:03.403Z,1015.74
2016-07-19T00:33:33.415Z,1015.77
2016-07-19T00:34:02.740Z,1015.78
2016-07-19T00:35:24.990Z,1015.76
2016-07-19T00:35:29.297Z,1015.75
2016-07-19T00:35:59.308Z,1015.73
2016-07-19T00:36:29.321Z,1015.75
2016-07-19T00:36:59.328Z,1015.73
2016-07-19T00:37:29.343Z,1015.76
2016-07-19T00:37:58.652Z,1015.76
2016-07-19T00:38:29.383Z,1015.73
2016-07-19T00:38:59.388Z,1015.73
2016-07-19T00:39:29.403Z,1015.7
2016-07-19T00:39:59.424Z,1015.72
2016-07-19T00:40:28.742Z,1015.7
2016-07-19T00:40:59.442Z,1015.71
2016-07-19T00:41:29.939Z,1015.71
2016-07-19T00:41:59.490Z,1015.68
2016-07-19T00:42:29.482Z,1015.67
2016-07-19T00:42:59.506Z,1015.68
2016-07-19T00:43:29.515Z,1015.67
2016-07-19T00:43:59.547Z,1015.72
2016-07-19T00:44:29.549Z,1015.72
2016-07-19T00:44:59.563Z,1015.7
2016-07-19T00:45:29.590Z,1015.74
2016-07-19T00:45:59.601Z,1015.69
2016-07-19T00:46:29.600Z,1015.69
2016-07-19T00:46:59.628Z,1015.69
2016-07-19T00:47:29.640Z,1015.67
2016-07-19T00:47:58.934Z,1015.66
2016-07-19T00:48:29.669Z,1015.66
2016-07-19T00:48:59.684Z,1015.65
2016-07-19T00:49:29.694Z,1015.67
2016-07-19T00:49:59.715Z,1015.63
2016-07-19T00:50:29.725Z,1015.65
2016-07-19T00:50:59.739Z,1015.65
2016-07-19T00:51:29.747Z,1015.64
2016-07-19T00:51:59.766Z,1015.64
2016-07-19T00:52:29.791Z,1015.65
2016-07-19T00:52:59.083Z,1015.65
2016-07-19T00:53:29.827Z,1015.67
2016-07-19T00:53:59.827Z,1015.64
2016-07-19T00:54:29.834Z,1015.66
2016-07-19T00:54:59.852Z,1015.68
2016-07-19T00:55:29.871Z,1015.71
2016-07-19T00:55:59.871Z,1015.67
2016-07-19T00:56:29.183Z,1015.69
2016-07-19T00:56:59.913Z,1015.69
2016-07-19T00:57:29.221Z,1015.7
2016-07-19T00:57:59.935Z,1015.64
2016-07-19T00:58:29.953Z,1015.62
2016-07-19T00:58:59.963Z,1015.61
2016-07-19T00:59:29.985Z,1015.6
2016-07-19T00:59:59.999Z,1015.62
2016-07-19T01:00:30.015Z,1015.59
2016-07-19T01:01:00.040Z,1015.63
2016-07-19T01:01:30.028Z,1015.63
2016-07-19T01:02:00.052Z,1015.61
2016-07-19T01:02:30.078Z,1015.58
2016-07-19T01:03:00.079Z,1015.62
2016-07-19T01:03:30.098Z,1015.65
2016-07-19T01:04:00.124Z,1015.64
2016-07-19T01:04:30.121Z,1015.64
2016-07-19T01:05:14.333Z,1015.66
2016-07-19T01:05:30.152Z,1015.66
2016-07-19T01:06:00.182Z,1015.67
2016-07-19T01:06:30.180Z,1015.65
2016-07-19T01:07:00.188Z,1015.67
2016-07-19T01:07:30.211Z,1015.68
2016-07-19T01:08:00.232Z,1015.68
2016-07-19T01:08:29.536Z,1015.66
2016-07-19T01:09:00.246Z,1015.62
2016-07-19T01:09:30.273Z,1015.65
2016-07-19T01:10:00.308Z,1015.65
2016-07-19T01:10:30.306Z,1015.63
2016-07-19T01:11:00.302Z,1015.66
2016-07-19T01:11:29.616Z,1015.62
2016-07-19T01:12:00.337Z,1015.62
2016-07-19T01:12:30.363Z,1015.61
2016-07-19T01:13:00.374Z,1015.63
2016-07-19T01:13:29.678Z,1015.62
2016-07-19T01:14:00.396Z,1015.64
2016-07-19T01:14:29.714Z,1015.64
2016-07-19T01:15:00.414Z,1015.64
2016-07-19T01:15:30.439Z,1015.61
2016-07-19T01:16:00.451Z,1015.65
2016-07-19T01:16:30.465Z,1015.61
2016-07-19T01:16:59.780Z,1015.65
2016-07-19T01:17:30.505Z,1015.63
2016-07-19T01:18:00.510Z,1015.65
2016-07-19T01:18:29.822Z,1015.61
2016-07-19T01:19:00.545Z,1015.64
2016-07-19T01:19:30.564Z,1015.61
2016-07-19T01:20:00.573Z,1015.55
2016-07-19T01:20:30.586Z,1015.56
2016-07-19T01:21:00.615Z,1015.54
2016-07-19T01:21:30.624Z,1015.57
2016-07-19T01:22:00.629Z,1015.54
2016-07-19T01:22:29.931Z,1015.54
2016-07-19T01:23:00.663Z,1015.51
2016-07-19T01:23:30.676Z,1015.56
2016-07-19T01:24:00.680Z,1015.5
2016-07-19T01:24:30.693Z,1015.51
2016-07-19T01:25:00.712Z,1015.52
2016-07-19T01:25:30.721Z,1015.52
2016-07-19T01:26:00.736Z,1015.57
2016-07-19T01:26:29.338Z,1015.56
2016-07-19T01:27:00.771Z,1015.56
2016-07-19T01:27:30.777Z,1015.56
2016-07-19T01:28:00.811Z,1015.57
2016-07-19T01:28:30.806Z,1015.56
2016-07-19T01:29:00.824Z,1015.57
2016-07-19T01:29:30.128Z,1015.58
2016-07-19T01:30:00.861Z,1015.61
2016-07-19T01:30:30.862Z,1015.59
2016-07-19T01:31:00.886Z,1015.6
2016-07-19T01:31:30.189Z,1015.62
2016-07-19T01:32:00.203Z,1015.57
2016-07-19T01:32:30.917Z,1015.57
2016-07-19T01:33:00.238Z,1015.57
2016-07-19T01:33:30.250Z,1015.59
2016-07-19T01:34:00.964Z,1015.55
2016-07-19T01:34:30.270Z,1015.58
2016-07-19T01:35:00.995Z,1015.56
2016-07-19T01:35:31.012Z,1015.57
2016-07-19T01:36:01.022Z,1015.56
2016-07-19T01:36:31.036Z,1015.57
2016-07-19T01:37:00.351Z,1015.57
2016-07-19T01:37:31.069Z,1015.6
2016-07-19T01:38:01.086Z,1015.56
2016-07-19T01:38:31.100Z,1015.58
2016-07-19T01:39:01.114Z,1015.56
2016-07-19T01:39:31.137Z,1015.58
2016-07-19T01:40:01.143Z,1015.59
2016-07-19T01:40:31.165Z,1015.61
2016-07-19T01:41:00.454Z,1015.58
2016-07-19T01:41:31.188Z,1015.56
2016-07-19T01:42:01.205Z,1015.6
2016-07-19T01:42:31.203Z,1015.57
2016-07-19T01:43:01.225Z,1015.56
2016-07-19T01:43:30.535Z,1015.57
2016-07-19T01:44:01.258Z,1015.59
2016-07-19T01:44:31.271Z,1015.55
2016-07-19T01:45:01.281Z,1015.54
2016-07-19T01:45:30.593Z,1015.52
2016-07-19T01:46:01.307Z,1015.53
2016-07-19T01:46:31.325Z,1015.56
2016-07-19T01:47:01.355Z,1015.52
2016-07-19T01:47:31.351Z,1015.53
2016-07-19T01:48:00.661Z,1015.55
2016-07-19T01:48:29.962Z,1015.55
2016-07-19T01:49:01.399Z,1015.52
2016-07-19T01:49:31.413Z,1015.52
2016-07-19T01:50:01.417Z,1015.52
2016-07-19T01:50:30.739Z,1015.52
2016-07-19T01:51:00.749Z,1015.52
2016-07-19T01:51:31.462Z,1015.51
2016-07-19T01:52:00.776Z,1015.48
2016-07-19T01:52:31.501Z,1015.55
2016-07-19T01:53:01.503Z,1015.54
2016-07-19T01:53:31.517Z,1015.5
2016-07-19T01:54:01.532Z,1015.51
2016-07-19T01:54:31.555Z,1015.5
2016-07-19T01:55:00.853Z,1015.54
2016-07-19T01:55:31.588Z,1015.52
2016-07-19T01:56:00.894Z,1015.53
2016-07-19T01:56:30.902Z,1015.58
2016-07-19T01:57:01.624Z,1015.58
2016-07-19T01:57:31.643Z,1015.56
2016-07-19T01:58:00.944Z,1015.58
2016-07-19T01:58:30.958Z,1015.59
2016-07-19T01:59:01.674Z,1015.58
2016-07-19T01:59:30.989Z,1015.55
2016-07-19T02:00:01.724Z,1015.57
2016-07-19T02:00:31.720Z,1015.53
2016-07-19T02:01:01.738Z,1015.55
2016-07-19T02:01:31.759Z,1015.54
2016-07-19T02:02:01.765Z,1015.53
2016-07-19T02:02:31.068Z,1015.54
2016-07-19T02:03:01.802Z,1015.58
2016-07-19T02:03:31.100Z,1015.55
2016-07-19T02:04:01.818Z,1015.53
2016-07-19T02:04:31.123Z,1015.57
2016-07-19T02:05:01.855Z,1015.55
2016-07-19T02:05:31.159Z,1015.55
2016-07-19T02:06:01.878Z,1015.51
2016-07-19T02:06:31.892Z,1015.54
2016-07-19T02:07:01.913Z,1015.54
2016-07-19T02:07:31.919Z,1015.55
2016-07-19T02:08:01.935Z,1015.59
2016-07-19T02:08:31.948Z,1015.59
2016-07-19T02:09:01.266Z,1015.54
2016-07-19T02:09:31.280Z,1015.56
2016-07-19T02:10:01.999Z,1015.59
2016-07-19T02:10:32.008Z,1015.57
2016-07-19T02:11:01.309Z,1015.59
2016-07-19T02:11:32.044Z,1015.59
2016-07-19T02:12:02.055Z,1015.61
2016-07-19T02:12:31.357Z,1015.57
2016-07-19T02:13:02.089Z,1015.59
2016-07-19T02:13:32.100Z,1015.6
2016-07-19T02:14:02.108Z,1015.57
2016-07-19T02:14:32.137Z,1015.62
2016-07-19T02:15:02.149Z,1015.63
2016-07-19T02:15:31.453Z,1015.59
2016-07-19T02:16:02.167Z,1015.57
2016-07-19T02:16:31.476Z,1015.59
2016-07-19T02:17:02.196Z,1015.61
2016-07-19T02:17:32.216Z,1015.61
2016-07-19T02:18:02.240Z,1015.6
2016-07-19T02:18:32.247Z,1015.62
2016-07-19T02:19:01.740Z,1015.6
2016-07-19T02:19:31.554Z,1015.63
2016-07-19T02:20:02.289Z,1015.65
2016-07-19T02:20:32.289Z,1015.62
2016-07-19T02:21:02.305Z,1015.63
2016-07-19T02:21:32.329Z,1015.66
2016-07-19T02:22:02.333Z,1015.64
2016-07-19T02:22:31.637Z,1015.65
2016-07-19T02:23:02.367Z,1015.66
2016-07-19T02:23:31.673Z,1015.68
2016-07-19T02:24:02.390Z,1015.68
2016-07-19T02:24:32.405Z,1015.7
2016-07-19T02:25:02.437Z,1015.65
2016-07-19T02:25:31.731Z,1015.64
2016-07-19T02:26:02.449Z,1015.67
2016-07-19T02:26:32.464Z,1015.64
2016-07-19T02:27:02.480Z,1015.62
2016-07-19T02:27:32.496Z,1015.62
2016-07-19T02:28:02.509Z,1015.64
2016-07-19T02:28:32.521Z,1015.64
2016-07-19T02:29:02.527Z,1015.59
2016-07-19T02:29:32.543Z,1015.59
2016-07-19T02:30:02.563Z,1015.58
2016-07-19T02:30:32.578Z,1015.54
2016-07-19T02:31:02.603Z,1015.55
2016-07-19T02:31:32.610Z,1015.55
2016-07-19T02:32:02.611Z,1015.54
2016-07-19T02:32:32.630Z,1015.55
2016-07-19T02:33:02.656Z,1015.52
2016-07-19T02:33:32.667Z,1015.52
2016-07-19T02:34:02.666Z,1015.52
2016-07-19T02:34:32.709Z,1015.57
2016-07-19T02:35:02.721Z,1015.52
2016-07-19T02:35:32.720Z,1015.54
2016-07-19T02:36:02.741Z,1015.53
2016-07-19T02:36:32.751Z,1015.51
2016-07-19T02:37:02.047Z,1015.53
2016-07-19T02:37:32.770Z,1015.53
2016-07-19T02:38:02.085Z,1015.5
2016-07-19T02:38:32.815Z,1015.54
2016-07-19T02:39:02.815Z,1015.52
2016-07-19T02:39:32.827Z,1015.51
2016-07-19T02:40:02.846Z,1015.5
2016-07-19T02:40:32.861Z,1015.52
2016-07-19T02:41:02.871Z,1015.5
2016-07-19T02:41:32.891Z,1015.53
2016-07-19T02:42:02.904Z,1015.5
2016-07-19T02:42:32.926Z,1015.52
2016-07-19T02:43:02.928Z,1015.55
2016-07-19T02:43:32.244Z,1015.57
2016-07-19T02:44:02.978Z,1015.54
2016-07-19T02:45:04.344Z,1015.48
2016-07-19T02:45:07.935Z,1015.48
2016-07-19T02:45:37.945Z,1015.49
2016-07-19T02:46:07.958Z,1015.51
2016-07-19T02:46:37.974Z,1015.49
2016-07-19T02:47:07.279Z,1015.49
2016-07-19T02:47:38.005Z,1015.52
2016-07-19T02:48:08.022Z,1015.53
2016-07-19T02:48:38.035Z,1015.48
2016-07-19T02:49:07.334Z,1015.51
2016-07-19T02:49:38.061Z,1015.52
2016-07-19T02:50:08.068Z,1015.53
2016-07-19T02:50:37.377Z,1015.5
2016-07-19T02:51:08.095Z,1015.54
2016-07-19T02:51:38.122Z,1015.52
2016-07-19T02:52:08.127Z,1015.56
2016-07-19T02:52:38.144Z,1015.52
2016-07-19T02:53:08.155Z,1015.54
2016-07-19T02:53:38.169Z,1015.55
2016-07-19T02:54:08.186Z,1015.55
2016-07-19T02:54:38.206Z,1015.48
2016-07-19T02:55:08.210Z,1015.51
2016-07-19T02:55:38.232Z,1015.52
2016-07-19T02:56:08.241Z,1015.49
2016-07-19T02:56:38.266Z,1015.53
2016-07-19T02:57:08.275Z,1015.5
2016-07-19T02:57:38.290Z,1015.52
2016-07-19T02:58:07.591Z,1015.53
2016-07-19T02:58:38.319Z,1015.5
2016-07-19T02:59:08.333Z,1015.5
2016-07-19T02:59:38.328Z,1015.5
2016-07-19T03:00:08.361Z,1015.51
2016-07-19T03:00:38.385Z,1015.47
2016-07-19T03:01:08.385Z,1015.47
2016-07-19T03:01:37.685Z,1015.45
2016-07-19T03:02:07.712Z,1015.45
2016-07-19T03:02:38.443Z,1015.49
2016-07-19T03:03:08.439Z,1015.44
2016-07-19T03:03:38.457Z,1015.45
2016-07-19T03:04:08.478Z,1015.44
2016-07-19T03:04:38.493Z,1015.43
2016-07-19T03:05:08.491Z,1015.41
2016-07-19T03:05:37.808Z,1015.42
2016-07-19T03:06:08.540Z,1015.42
2016-07-19T03:06:38.545Z,1015.43
2016-07-19T03:07:08.545Z,1015.41
2016-07-19T03:07:38.573Z,1015.4
2016-07-19T03:08:08.589Z,1015.45
2016-07-19T03:08:38.600Z,1015.44
2016-07-19T03:09:08.608Z,1015.41
2016-07-19T03:09:38.640Z,1015.41
2016-07-19T03:10:08.642Z,1015.41
2016-07-19T03:10:38.658Z,1015.4
2016-07-19T03:11:07.258Z,1015.43
2016-07-19T03:11:38.683Z,1015.45
2016-07-19T03:12:07.988Z,1015.44
2016-07-19T03:12:38.704Z,1015.44
2016-07-19T03:13:08.737Z,1015.44
2016-07-19T03:13:38.751Z,1015.42
2016-07-19T03:14:08.753Z,1015.43
2016-07-19T03:14:38.768Z,1015.43
2016-07-19T03:15:08.794Z,1015.41
2016-07-19T03:15:38.790Z,1015.41
2016-07-19T03:16:08.805Z,1015.39
2016-07-19T03:16:38.842Z,1015.44
2016-07-19T03:17:08.844Z,1015.43
2016-07-19T03:17:38.864Z,1015.43
2016-07-19T03:18:08.863Z,1015.42
2016-07-19T03:18:38.889Z,1015.4
2016-07-19T03:19:08.905Z,1015.39
2016-07-19T03:19:38.201Z,1015.41
2016-07-19T03:20:08.923Z,1015.4
2016-07-19T03:20:38.936Z,1015.39
2016-07-19T03:21:08.949Z,1015.39
2016-07-19T03:21:38.968Z,1015.38
2016-07-19T03:22:08.980Z,1015.39
2016-07-19T03:22:39.000Z,1015.4
2016-07-19T03:23:09.011Z,1015.38
2016-07-19T03:23:39.017Z,1015.42
2016-07-19T03:24:09.044Z,1015.42
2016-07-19T03:24:39.042Z,1015.41
2016-07-19T03:25:09.060Z,1015.42
2016-07-19T03:25:39.080Z,1015.41
2016-07-19T03:26:09.093Z,1015.48
2016-07-19T03:26:39.122Z,1015.46
2016-07-19T03:27:08.407Z,1015.42
2016-07-19T03:27:39.143Z,1015.42
2016-07-19T03:28:08.443Z,1015.42
2016-07-19T03:28:38.456Z,1015.45
2016-07-19T03:29:09.177Z,1015.43
2016-07-19T03:29:38.485Z,1015.45
2016-07-19T03:30:09.199Z,1015.44
2016-07-19T03:30:39.214Z,1015.42
2016-07-19T03:31:08.531Z,1015.43
2016-07-19T03:31:39.252Z,1015.43
2016-07-19T03:32:08.556Z,1015.45
2016-07-19T03:32:39.280Z,1015.42
2016-07-19T03:33:09.292Z,1015.39
2016-07-19T03:33:39.313Z,1015.43
2016-07-19T03:34:09.313Z,1015.4
2016-07-19T03:34:39.339Z,1015.41
2016-07-19T03:35:09.353Z,1015.41
2016-07-19T03:35:39.375Z,1015.43
2016-07-19T03:36:08.673Z,1015.41
2016-07-19T03:36:38.677Z,1015.39
2016-07-19T03:37:09.415Z,1015.4
2016-07-19T03:37:38.709Z,1015.4
2016-07-19T03:38:09.432Z,1015.43
2016-07-19T03:38:39.461Z,1015.42
2016-07-19T03:39:09.464Z,1015.41
2016-07-19T03:39:39.468Z,1015.41
2016-07-19T03:40:09.492Z,1015.38
2016-07-19T03:40:39.504Z,1015.41
2016-07-19T03:41:09.521Z,1015.4
2016-07-19T03:41:39.533Z,1015.43
2016-07-19T03:42:09.550Z,1015.42
2016-07-19T03:42:39.568Z,1015.43
2016-07-19T03:43:09.570Z,1015.41
2016-07-19T03:43:39.595Z,1015.41
2016-07-19T03:44:09.607Z,1015.44
2016-07-19T03:44:39.611Z,1015.39
2016-07-19T03:45:09.627Z,1015.39
2016-07-19T03:45:39.654Z,1015.39
2016-07-19T03:46:09.675Z,1015.4
2016-07-19T03:46:38.963Z,1015.44
2016-07-19T03:47:09.684Z,1015.45
2016-07-19T03:47:39.695Z,1015.4
2016-07-19T03:48:09.714Z,1015.42
2016-07-19T03:48:39.017Z,1015.46
2016-07-19T03:49:09.043Z,1015.46
2016-07-19T03:49:39.774Z,1015.46
2016-07-19T03:50:09.773Z,1015.44
2016-07-19T03:50:39.792Z,1015.45
2016-07-19T03:51:09.806Z,1015.39
2016-07-19T03:51:39.113Z,1015.47
2016-07-19T03:52:09.821Z,1015.42
2016-07-19T03:52:39.856Z,1015.44
2016-07-19T03:53:09.150Z,1015.43
2016-07-19T03:53:39.880Z,1015.42
2016-07-19T03:54:09.894Z,1015.43
2016-07-19T03:54:39.192Z,1015.42
2016-07-19T03:55:09.912Z,1015.41
2016-07-19T03:55:39.932Z,1015.41
2016-07-19T03:56:09.229Z,1015.38
2016-07-19T03:56:39.951Z,1015.43
2016-07-19T03:57:09.971Z,1015.43
2016-07-19T03:57:39.984Z,1015.41
2016-07-19T03:58:09.998Z,1015.39
2016-07-19T03:58:40.014Z,1015.41
2016-07-19T03:59:10.023Z,1015.4
2016-07-19T03:59:40.041Z,1015.41
2016-07-19T04:00:10.062Z,1015.36
2016-07-19T04:00:40.062Z,1015.41
2016-07-19T04:01:10.074Z,1015.43
2016-07-19T04:01:39.389Z,1015.4
2016-07-19T04:02:10.107Z,1015.43
2016-07-19T04:02:38.705Z,1015.45
2016-07-19T04:03:10.139Z,1015.43
2016-07-19T04:03:40.155Z,1015.43
2016-07-19T04:04:10.165Z,1015.49
2016-07-19T04:04:40.191Z,1015.49
2016-07-19T04:05:10.203Z,1015.44
2016-07-19T04:05:39.498Z,1015.44
2016-07-19T04:06:10.225Z,1015.42
2016-07-19T04:06:40.231Z,1015.39
2016-07-19T04:07:09.541Z,1015.43
2016-07-19T04:07:40.275Z,1015.41
2016-07-19T04:08:10.286Z,1015.39
2016-07-19T04:08:40.301Z,1015.44
2016-07-19T04:09:09.607Z,1015.41
2016-07-19T04:09:39.611Z,1015.4
2016-07-19T04:10:10.342Z,1015.44
2016-07-19T04:10:40.354Z,1015.38
2016-07-19T04:11:09.658Z,1015.41
2016-07-19T04:11:40.377Z,1015.42
2016-07-19T04:12:10.401Z,1015.41
2016-07-19T04:12:39.715Z,1015.42
2016-07-19T04:13:10.425Z,1015.41
2016-07-19T04:13:40.436Z,1015.42
2016-07-19T04:14:09.749Z,1015.42
2016-07-19T04:14:40.470Z,1015.41
2016-07-19T04:15:10.481Z,1015.4
2016-07-19T04:15:40.501Z,1015.4
2016-07-19T04:16:10.512Z,1015.42
2016-07-19T04:16:39.115Z,1015.41
2016-07-19T04:17:09.823Z,1015.4
2016-07-19T04:17:40.557Z,1015.4
2016-07-19T04:18:10.568Z,1015.38
2016-07-19T04:18:40.585Z,1015.36
2016-07-19T04:19:10.603Z,1015.37
2016-07-19T04:19:40.611Z,1015.4
2016-07-19T04:20:10.625Z,1015.39
2016-07-19T04:20:40.632Z,1015.38
2016-07-19T04:21:10.658Z,1015.38
2016-07-19T04:21:40.663Z,1015.43
2016-07-19T04:22:10.685Z,1015.38
2016-07-19T04:22:40.693Z,1015.39
2016-07-19T04:23:10.704Z,1015.41
2016-07-19T04:23:40.725Z,1015.4
2016-07-19T04:24:10.753Z,1015.38
2016-07-19T04:24:40.041Z,1015.38
2016-07-19T04:25:10.768Z,1015.35
2016-07-19T04:25:40.789Z,1015.39
2016-07-19T04:26:10.819Z,1015.37
2016-07-19T04:26:40.094Z,1015.37
2016-07-19T04:27:10.830Z,1015.41
2016-07-19T04:27:40.844Z,1015.4
2016-07-19T04:28:09.427Z,1015.4
2016-07-19T04:28:40.860Z,1015.39
2016-07-19T04:29:10.171Z,1015.39
2016-07-19T04:29:40.896Z,1015.42
2016-07-19T04:30:10.903Z,1015.4
2016-07-19T04:30:40.921Z,1015.39
2016-07-19T04:31:10.938Z,1015.41
2016-07-19T04:31:40.950Z,1015.39
2016-07-19T04:32:10.962Z,1015.42
2016-07-19T04:32:40.997Z,1015.43
2016-07-19T04:33:10.994Z,1015.46
2016-07-19T04:33:41.001Z,1015.42
2016-07-19T04:34:11.024Z,1015.45
2016-07-19T04:34:41.039Z,1015.45
2016-07-19T04:35:11.055Z,1015.43
2016-07-19T04:35:41.065Z,1015.4
2016-07-19T04:36:11.082Z,1015.42
2016-07-19T04:36:41.096Z,1015.45
2016-07-19T04:37:11.101Z,1015.47
2016-07-19T04:37:41.127Z,1015.49
2016-07-19T04:38:11.135Z,1015.48
2016-07-19T04:38:39.737Z,1015.47
2016-07-19T04:39:11.164Z,1015.51
2016-07-19T04:39:41.187Z,1015.51
2016-07-19T04:40:11.212Z,1015.52
2016-07-19T04:40:41.205Z,1015.55
2016-07-19T04:41:11.228Z,1015.56
2016-07-19T04:41:41.231Z,1015.58
2016-07-19T04:42:11.253Z,1015.56
2016-07-19T04:42:41.264Z,1015.54
2016-07-19T04:43:11.277Z,1015.57
2016-07-19T04:43:41.305Z,1015.58
2016-07-19T04:44:11.311Z,1015.56
2016-07-19T04:44:41.327Z,1015.58
2016-07-19T04:45:11.349Z,1015.59
2016-07-19T04:45:41.357Z,1015.57
2016-07-19T04:46:11.367Z,1015.58
2016-07-19T04:46:40.676Z,1015.61
2016-07-19T04:47:11.396Z,1015.61
2016-07-19T04:47:41.413Z,1015.62
2016-07-19T04:48:10.719Z,1015.64
2016-07-19T04:48:41.428Z,1015.62
2016-07-19T04:49:10.750Z,1015.63
2016-07-19T04:49:40.756Z,1015.63
2016-07-19T04:50:11.470Z,1015.6
2016-07-19T04:50:41.490Z,1015.6
2016-07-19T04:51:11.504Z,1015.64
2016-07-19T04:51:41.522Z,1015.63
2016-07-19T04:52:11.539Z,1015.62
2016-07-19T04:52:41.553Z,1015.59
2016-07-19T04:53:11.564Z,1015.61
2016-07-19T04:53:40.871Z,1015.63
2016-07-19T04:54:11.602Z,1015.64
2016-07-19T04:54:40.896Z,1015.64
2016-07-19T04:55:11.623Z,1015.62
2016-07-19T04:55:40.227Z,1015.64
2016-07-19T04:56:11.646Z,1015.64
2016-07-19T04:56:40.964Z,1015.61
2016-07-19T04:57:11.679Z,1015.6
2016-07-19T04:57:40.992Z,1015.6
2016-07-19T04:58:11.714Z,1015.62
2016-07-19T04:58:41.019Z,1015.6
2016-07-19T04:59:11.746Z,1015.65
2016-07-19T04:59:41.972Z,1015.61
2016-07-19T05:00:11.771Z,1015.62
2016-07-19T05:00:41.782Z,1015.62
2016-07-19T05:01:11.800Z,1015.59
2016-07-19T05:01:41.101Z,1015.62
2016-07-19T05:02:11.827Z,1015.59
2016-07-19T05:02:41.833Z,1015.58
2016-07-19T05:03:11.141Z,1015.62
2016-07-19T05:03:41.878Z,1015.6
2016-07-19T05:04:11.877Z,1015.59
2016-07-19T05:04:41.894Z,1015.6
2016-07-19T05:05:11.908Z,1015.63
2016-07-19T05:05:41.223Z,1015.61
2016-07-19T05:06:11.958Z,1015.62
2016-07-19T05:06:41.956Z,1015.61
2016-07-19T05:07:11.967Z,1015.62
2016-07-19T05:07:41.981Z,1015.63
2016-07-19T05:08:11.289Z,1015.66
2016-07-19T05:08:42.014Z,1015.61
2016-07-19T05:09:12.028Z,1015.64
2016-07-19T05:09:42.033Z,1015.62
2016-07-19T05:10:12.053Z,1015.65
2016-07-19T05:10:42.075Z,1015.63
2016-07-19T05:11:12.084Z,1015.62
2016-07-19T05:11:41.389Z,1015.6
2016-07-19T05:12:12.109Z,1015.6
2016-07-19T05:12:42.127Z,1015.58
2016-07-19T05:13:12.142Z,1015.6
2016-07-19T05:13:40.736Z,1015.62
2016-07-19T05:14:12.178Z,1015.6
2016-07-19T05:14:42.179Z,1015.58
2016-07-19T05:15:12.203Z,1015.61
2016-07-19T05:15:41.514Z,1015.58
2016-07-19T05:16:11.518Z,1015.6
2016-07-19T05:16:42.236Z,1015.55
2016-07-19T05:17:12.251Z,1015.57
2016-07-19T05:17:42.277Z,1015.6
2016-07-19T05:18:11.579Z,1015.57
2016-07-19T05:18:42.298Z,1015.59
2016-07-19T05:19:11.608Z,1015.61
2016-07-19T05:19:42.329Z,1015.59
2016-07-19T05:20:12.341Z,1015.6
2016-07-19T05:20:42.360Z,1015.59
2016-07-19T05:21:12.388Z,1015.63
2016-07-19T05:21:42.388Z,1015.63
2016-07-19T05:22:11.688Z,1015.61
2016-07-19T05:22:42.425Z,1015.67
2016-07-19T05:23:12.429Z,1015.67
2016-07-19T05:23:42.437Z,1015.65
2016-07-19T05:24:12.466Z,1015.69
2016-07-19T05:24:42.473Z,1015.65
2016-07-19T05:25:12.496Z,1015.66
2016-07-19T05:25:41.792Z,1015.66
2016-07-19T05:26:12.525Z,1015.68
2016-07-19T05:26:42.535Z,1015.67
2016-07-19T05:27:12.551Z,1015.69
2016-07-19T05:27:42.559Z,1015.69
2016-07-19T05:28:12.584Z,1015.68
2016-07-19T05:28:42.595Z,1015.67
2016-07-19T05:29:12.607Z,1015.68
2016-07-19T05:29:42.620Z,1015.65
2016-07-19T05:30:11.916Z,1015.66
2016-07-19T05:30:42.649Z,1015.69
2016-07-19T05:31:11.248Z,1015.7
2016-07-19T05:31:41.969Z,1015.69
2016-07-19T05:32:12.706Z,1015.71
2016-07-19T05:32:42.708Z,1015.71
2016-07-19T05:33:12.711Z,1015.73
2016-07-19T05:33:42.737Z,1015.74
2016-07-19T05:34:12.747Z,1015.73
2016-07-19T05:34:42.770Z,1015.75
2016-07-19T05:35:12.076Z,1015.7
2016-07-19T05:35:42.089Z,1015.74
2016-07-19T05:36:12.810Z,1015.74
2016-07-19T05:36:42.114Z,1015.79
2016-07-19T05:37:12.130Z,1015.75
2016-07-19T05:37:42.842Z,1015.76
2016-07-19T05:38:12.856Z,1015.79
2016-07-19T05:38:42.900Z,1015.8
2016-07-19T05:39:11.477Z,1015.8
2016-07-19T05:39:42.918Z,1015.79
2016-07-19T05:40:12.922Z,1015.83
2016-07-19T05:40:42.947Z,1015.83
2016-07-19T05:41:12.946Z,1015.83
2016-07-19T05:41:42.970Z,1015.81
2016-07-19T05:42:12.983Z,1015.82
2016-07-19T05:42:42.990Z,1015.84
2016-07-19T05:43:13.006Z,1015.83
2016-07-19T05:43:43.029Z,1015.78
2016-07-19T05:44:13.036Z,1015.81
2016-07-19T05:44:42.348Z,1015.81
2016-07-19T05:45:13.067Z,1015.81
2016-07-19T05:45:43.082Z,1015.8
2016-07-19T05:46:12.392Z,1015.82
2016-07-19T05:46:43.125Z,1015.82
2016-07-19T05:47:13.124Z,1015.86
2016-07-19T05:47:43.149Z,1015.82
2016-07-19T05:48:13.155Z,1015.85
2016-07-19T05:48:43.172Z,1015.86
2016-07-19T05:49:13.190Z,1015.88
2016-07-19T05:49:43.198Z,1015.87
2016-07-19T05:50:13.207Z,1015.87
2016-07-19T05:50:43.231Z,1015.91
2016-07-19T05:51:13.249Z,1015.88
2016-07-19T05:51:43.261Z,1015.89
2016-07-19T05:52:13.276Z,1015.92
2016-07-19T05:52:43.300Z,1015.9
2016-07-19T05:53:13.310Z,1015.92
2016-07-19T05:53:43.321Z,1015.92
2016-07-19T05:54:13.331Z,1015.91
2016-07-19T05:54:43.352Z,1015.91
2016-07-19T05:55:12.664Z,1015.94
2016-07-19T05:55:42.670Z,1015.91
2016-07-19T05:56:13.403Z,1015.95
2016-07-19T05:56:43.422Z,1015.95
2016-07-19T05:57:13.431Z,1015.95
2016-07-19T05:57:43.445Z,1015.95
2016-07-19T05:58:13.459Z,1015.96
2016-07-19T05:58:43.471Z,1015.96
2016-07-19T05:59:12.767Z,1015.91
2016-07-19T05:59:43.500Z,1015.91
2016-07-19T06:00:13.512Z,1015.92
2016-07-19T06:00:42.810Z,1015.95
2016-07-19T06:01:13.550Z,1015.94
2016-07-19T06:01:43.566Z,1015.96
2016-07-19T06:02:12.867Z,1015.93
2016-07-19T06:02:43.576Z,1015.94
2016-07-19T06:03:13.609Z,1015.91
2016-07-19T06:03:43.624Z,1015.97
2016-07-19T06:04:12.917Z,1015.93
2016-07-19T06:04:42.936Z,1015.98